Hlavní strana
METAR-TAF:

METAR-TAF

Letiště :

Gibraltar, Gibraltar

Mezinárodní letiště Gibraltar

zeměpisná šířka: 36-09N, zeměpisná délka: 005-21W, výška: 5 m

Aktuální stav počasí

Zpráva byla vytvořena před 1 hodinou a 2 minutami, v 20:50 UTC
Západojihozápadní vítr 12 kt
Teplota 15°C
Vlhkost vzduchu 88%
Tlak 1026 hPa
Viditelnost 10 km a více

METAR: LXGB 222050Z AUTO 24012KT 9999 // NCD 15/13 Q1026

Čas: 22:52 (21:52 UTC)

Předpověď počasí

Zpráva byla vytvořena před 8 hodinami a 9 minutami, v 13:43 UTC
Předpověď platná od 22 v 15 UTC do 22 v 22 UTC
Jihozápadní vítr 12 kt
Viditelnost 10 km a více
Skoro jasno ve výšce 2000 ft
Dočasný
od 22 v 15 UTC do 22 v 16 UTC
Jihojihozápadní vítr 14 kt

TAF: LXGB 221343Z 2215/2222 23012KT 9999 FEW020 TEMPO 2215/2216 20014KT 520002

Stav a předpovědi počasí z více než 4 000 letišť (zprávy METAR a TAF).

Červené a žluté tečky na mapě představují dostupné meteorologické stanice.

Když kurzor umístíte na tečku, zobrazí se název stanice.

Pak kliknutím zobrazíte stav a předpověď počasí.

Chcete-li změnit mapu, kliknutím na zelené tlačítko se znaménkem +mapu přiblížíte, kliknutím na zelené tlačítko se znaménkem – mapu oddálíte a kliknutím na zelené šipky přejdete na sousední mapy.


METAR-TAF: